Time;durP1;ratioP1;P1;durP2;ratioP2;P2;SDS_P1;SDS_P2;PMS_P1;PMS_P2;Temp;Humidity;BMP_temperature;BMP_pressure;BME280_temperature;BME280_humidity;BME280_pressure;Samples;Min_cycle;Max_cycle;Signal;HPM_P1;HPM_P2
2023/01/02 08:12:44;;;;;;;4.38;1.55;;;11.00;99.90;;;;;;5728223;23;20083;-80
2023/01/02 08:15:10;;;;;;;3.85;1.25;;;10.90;99.90;;;;;;4898362;29;20051;-82
2023/01/02 08:17:37;;;;;;;4.72;1.75;;;10.90;99.90;;;;;;4899083;29;20049;-82
2023/01/02 08:20:04;;;;;;;10.07;1.88;;;10.90;99.90;;;;;;4898272;29;20063;-82
2023/01/02 08:22:34;;;;;;;5.60;1.65;;;11.00;99.90;;;;;;4895161;29;20060;-79
2023/01/02 08:25:01;;;;;;;9.43;3.70;;;11.00;99.90;;;;;;4895189;29;20052;-82
2023/01/02 08:27:27;;;;;;;6.38;2.35;;;11.00;99.90;;;;;;4892867;29;20422;-82
2023/01/02 08:29:54;;;;;;;6.25;2.00;;;11.00;99.90;;;;;;4895501;29;20056;-82
2023/01/02 08:32:21;;;;;;;5.35;2.35;;;11.10;99.90;;;;;;4894936;29;20139;-82
2023/01/02 08:34:48;;;;;;;5.57;2.30;;;11.10;99.90;;;;;;4893886;29;20068;-81
2023/01/02 08:37:14;;;;;;;4.75;2.47;;;11.10;99.90;;;;;;4894128;29;20053;-78
2023/01/02 08:39:41;;;;;;;6.38;2.83;;;11.10;99.90;;;;;;4890095;29;20051;-79
2023/01/02 08:42:08;;;;;;;6.10;2.08;;;11.20;99.90;;;;;;4895612;29;20078;-81
2023/01/02 08:44:36;;;;;;;7.50;1.75;;;11.10;99.90;;;;;;4893431;29;20504;-82
2023/01/02 08:47:04;;;;;;;7.55;2.42;;;11.20;99.90;;;;;;4896234;29;20052;-82
2023/01/02 08:49:31;;;;;;;5.80;1.48;;;11.20;99.90;;;;;;4895491;29;20052;-81
2023/01/02 08:51:57;;;;;;;3.50;1.48;;;11.20;99.90;;;;;;4890557;29;20076;-82
2023/01/02 08:54:24;;;;;;;6.53;1.95;;;11.30;99.90;;;;;;4892187;29;20065;-80
2023/01/02 08:56:51;;;;;;;5.15;1.60;;;11.30;99.90;;;;;;4893241;29;20127;-81
2023/01/02 08:59:18;;;;;;;6.05;2.22;;;11.40;99.90;;;;;;4892504;29;20048;-81
2023/01/02 09:01:44;;;;;;;5.05;1.55;;;11.40;99.90;;;;;;4889849;29;20076;-83
2023/01/02 09:04:11;;;;;;;5.85;1.70;;;11.40;99.90;;;;;;4893764;29;20084;-83
2023/01/02 09:06:40;;;;;;;4.82;1.60;;;11.50;99.90;;;;;;4894213;29;20057;-83
2023/01/02 09:09:08;;;;;;;6.05;1.33;;;11.60;99.90;;;;;;4893871;29;20510;-82
2023/01/02 09:11:44;;;;;;;4.78;1.60;;;11.70;99.90;;;;;;4891912;29;20053;-81
2023/01/02 09:14:10;;;;;;;7.05;1.88;;;11.80;99.90;;;;;;4894153;29;20124;-81
2023/01/02 09:16:37;;;;;;;6.55;1.42;;;11.90;99.90;;;;;;4894359;29;20045;-83
2023/01/02 09:19:04;;;;;;;2.80;1.70;;;12.00;99.90;;;;;;4896175;29;20045;-82
2023/01/02 09:21:31;;;;;;;4.97;1.55;;;12.10;99.90;;;;;;4898295;29;20136;-81
2023/01/02 09:23:58;;;;;;;10.80;1.65;;;12.20;99.90;;;;;;4897877;29;20049;-82
2023/01/02 09:26:25;;;;;;;14.57;3.15;;;12.30;99.90;;;;;;4902170;29;20048;-82
2023/01/02 09:28:51;;;;;;;9.73;1.80;;;12.30;99.90;;;;;;4900713;29;20059;-82
2023/01/02 09:31:19;;;;;;;9.40;1.75;;;12.40;99.90;;;;;;4895172;29;20049;-81
2023/01/02 09:33:47;;;;;;;4.55;1.10;;;12.50;99.90;;;;;;4900984;29;20045;-82
2023/01/02 09:36:17;;;;;;;9.27;1.73;;;12.60;99.90;;;;;;4898798;29;20604;-82
2023/01/02 09:38:48;;;;;;;9.63;1.52;;;13.30;99.90;;;;;;4894349;29;20045;-81
2023/01/02 09:41:27;;;;;;;8.00;2.10;;;12.80;99.90;;;;;;4901541;29;20057;-81
2023/01/02 09:44:15;;;;;;;9.20;1.33;;;12.80;99.90;;;;;;4902237;29;20139;-82
2023/01/02 09:46:50;;;;;;;5.07;1.33;;;12.90;99.90;;;;;;4900731;29;20048;-81
2023/01/02 09:49:24;;;;;;;7.95;1.70;;;13.00;99.90;;;;;;4893294;29;20052;-82
2023/01/02 09:51:51;;;;;;;9.93;2.13;;;13.10;99.90;;;;;;4893018;29;20060;-80
2023/01/02 09:54:27;;;;;;;4.20;2.05;;;13.20;99.90;;;;;;4894166;29;20048;-81
2023/01/02 09:57:22;;;;;;;9.98;1.98;;;13.30;99.90;;;;;;4894281;29;20516;-81
2023/01/02 09:59:49;;;;;;;5.97;1.73;;;13.30;99.90;;;;;;4894766;29;20056;-81
2023/01/02 10:03:04;;;;;;;8.85;1.65;;;13.40;99.90;;;;;;4892244;29;20052;-82
2023/01/02 10:05:40;;;;;;;6.57;1.38;;;13.60;99.90;;;;;;4890487;29;20119;-81
2023/01/02 10:08:20;;;;;;;8.55;1.90;;;13.70;99.90;;;;;;4894579;29;20079;-81
2023/01/02 10:11:09;;;;;;;11.38;1.83;;;13.70;99.90;;;;;;4887375;29;20091;-81
2023/01/02 10:13:53;;;;;;;11.85;2.15;;;13.80;99.90;;;;;;4898633;29;20045;-81
2023/01/02 10:16:47;;;;;;;8.25;2.20;;;13.80;99.90;;;;;;4896644;29;20501;-82
2023/01/02 10:19:27;;;;;;;11.43;2.28;;;13.80;99.90;;;;;;4898750;29;20045;-82
2023/01/02 10:21:58;;;;;;;8.43;1.80;;;13.80;99.90;;;;;;4891633;29;20062;-81
2023/01/02 10:24:50;;;;;;;10.13;1.90;;;13.90;99.90;;;;;;4902205;29;20049;-81
2023/01/02 10:27:24;;;;;;;9.02;1.67;;;13.90;99.90;;;;;;4914349;29;20054;-79
2023/01/02 10:30:02;;;;;;;11.25;1.98;;;13.90;99.90;;;;;;4900500;29;20120;-81
2023/01/02 10:32:31;;;;;;;13.70;2.28;;;14.00;99.90;;;;;;4903250;29;20083;-83
2023/01/02 10:35:07;;;;;;;11.18;1.85;;;14.00;99.90;;;;;;4895696;29;20537;-82
2023/01/02 10:37:34;;;;;;;9.38;2.15;;;14.10;99.90;;;;;;4905538;29;20076;-83
2023/01/02 10:40:01;;;;;;;5.93;2.03;;;14.10;99.90;;;;;;4900451;29;20132;-81
2023/01/02 10:42:31;;;;;;;10.27;2.45;;;14.20;99.90;;;;;;4895354;29;20139;-81
2023/01/02 10:44:59;;;;;;;9.73;2.00;;;14.30;99.90;;;;;;4891581;29;20131;-81
2023/01/02 10:47:36;;;;;;;7.63;1.67;;;14.30;99.90;;;;;;4901625;29;20419;-82
2023/01/02 10:50:05;;;;;;;14.15;2.25;;;14.40;99.90;;;;;;4920171;29;20061;-79
2023/01/02 10:52:33;;;;;;;9.40;2.10;;;14.40;99.90;;;;;;4899666;29;20073;-82
2023/01/02 10:55:01;;;;;;;9.43;2.35;;;14.40;99.90;;;;;;4899321;29;20332;-82
2023/01/02 10:57:49;;;;;;;7.28;2.20;;;14.50;99.90;;;;;;4898707;29;20509;-82
2023/01/02 11:00:19;;;;;;;9.73;1.90;;;14.50;99.90;;;;;;4893678;29;20072;-82
2023/01/02 11:03:04;;;;;;;13.70;2.30;;;14.50;99.90;;;;;;4899456;29;20544;-82
2023/01/02 11:05:32;;;;;;;6.15;1.85;;;14.60;99.90;;;;;;4899311;29;20192;-83
2023/01/02 11:08:05;;;;;;;6.38;1.98;;;14.60;99.90;;;;;;4897223;29;20538;-83
2023/01/02 11:10:37;;;;;;;10.70;2.88;;;14.60;99.90;;;;;;4892290;29;20136;-81
2023/01/02 11:13:10;;;;;;;7.97;2.30;;;14.60;99.90;;;;;;4891065;29;20048;-81
2023/01/02 11:15:51;;;;;;;11.65;2.42;;;14.80;99.90;;;;;;4893797;29;20053;-81
2023/01/02 11:18:38;;;;;;;8.85;2.22;;;14.80;99.90;;;;;;4892189;29;20104;-80
2023/01/02 11:21:06;;;;;;;11.27;2.00;;;14.90;99.90;;;;;;4887941;29;20056;-81
2023/01/02 11:23:43;;;;;;;9.60;2.72;;;15.00;99.90;;;;;;4893484;29;20131;-82
2023/01/02 11:26:19;;;;;;;12.57;2.45;;;15.00;99.90;;;;;;4898129;29;20053;-83
2023/01/02 11:28:48;;;;;;;10.45;1.73;;;15.00;99.90;;;;;;4898157;29;20044;-82
2023/01/02 11:31:16;;;;;;;18.67;3.33;;;15.10;99.90;;;;;;4893981;29;20052;-83
2023/01/02 11:33:44;;;;;;;9.48;1.83;;;15.20;99.90;;;;;;4893539;29;20466;-84
2023/01/02 11:36:11;;;;;;;11.70;2.10;;;15.20;99.90;;;;;;4896781;29;20052;-82
2023/01/02 11:38:57;;;;;;;9.20;2.17;;;15.20;99.90;;;;;;4914076;29;20044;-84
2023/01/02 11:44:31;;;;;;;12.13;2.35;;;15.40;99.90;;;;;;4896149;29;20054;-82
2023/01/02 11:46:59;;;;;;;8.88;2.33;;;15.50;99.90;;;;;;4893616;29;20174;-81
2023/01/02 11:49:33;;;;;;;9.25;2.05;;;15.50;99.90;;;;;;4890221;29;20514;-82
2023/01/02 11:52:04;;;;;;;14.80;2.08;;;15.60;99.90;;;;;;4891885;29;20048;-81
2023/01/02 11:54:56;;;;;;;10.77;2.15;;;15.60;99.90;;;;;;4893311;29;20041;-82
2023/01/02 11:57:48;;;;;;;10.70;2.35;;;15.60;99.90;;;;;;4886659;29;20048;-80
2023/01/02 12:00:18;;;;;;;10.05;2.20;;;15.70;99.90;;;;;;4889383;29;20092;-81
2023/01/02 12:02:51;;;;;;;12.20;2.40;;;15.80;99.90;;;;;;4883303;29;20527;-80
2023/01/02 12:05:24;;;;;;;13.55;2.83;;;15.80;99.90;;;;;;4885613;29;20085;-81
2023/01/02 12:08:00;;;;;;;9.45;2.13;;;15.80;99.90;;;;;;4880773;29;20059;-82
2023/01/02 12:10:42;;;;;;;13.70;3.78;;;15.80;99.90;;;;;;4887701;29;20052;-82
2023/01/02 12:13:36;;;;;;;9.05;2.30;;;15.80;99.90;;;;;;4898291;29;20044;-81
2023/01/02 12:16:11;;;;;;;6.80;2.90;;;15.90;99.90;;;;;;4895825;29;20521;-80
2023/01/02 12:18:45;;;;;;;12.30;2.10;;;15.90;99.90;;;;;;4893363;29;20049;-82
2023/01/02 12:21:22;;;;;;;9.27;2.10;;;15.90;99.90;;;;;;4880301;29;20053;-81
2023/01/02 12:24:16;;;;;;;9.93;3.00;;;15.90;99.90;;;;;;4895587;29;20060;-80
2023/01/02 12:27:08;;;;;;;9.88;2.60;;;15.90;99.90;;;;;;4890659;29;20055;-82
2023/01/02 12:30:12;;;;;;;10.65;3.08;;;15.90;99.90;;;;;;4891804;29;20053;-81
2023/01/02 12:32:52;;;;;;;12.00;2.38;;;16.00;99.90;;;;;;4880319;29;20463;-80
2023/01/02 12:35:40;;;;;;;6.82;2.40;;;16.00;99.90;;;;;;4882736;29;20056;-81
2023/01/02 12:38:09;;;;;;;16.65;2.65;;;16.00;99.90;;;;;;4884434;29;20052;-82
2023/01/02 12:40:39;;;;;;;10.50;2.20;;;16.00;99.90;;;;;;4899125;29;20060;-81
2023/01/02 12:43:31;;;;;;;13.18;2.45;;;16.00;99.90;;;;;;4883524;29;20523;-81
2023/01/02 12:46:19;;;;;;;14.82;3.05;;;16.00;99.90;;;;;;4901331;29;20080;-78
2023/01/02 12:49:04;;;;;;;15.07;2.60;;;16.00;99.90;;;;;;4902902;29;20048;-80
2023/01/02 12:51:56;;;;;;;10.60;2.97;;;15.90;99.90;;;;;;4897049;29;20459;-79
2023/01/02 12:54:46;;;;;;;11.50;3.35;;;15.90;99.90;;;;;;4896116;29;20080;-80
2023/01/02 12:57:21;;;;;;;14.40;2.65;;;15.90;99.90;;;;;;4901096;29;20049;-81
2023/01/02 13:00:01;;;;;;;19.90;3.38;;;15.90;99.90;;;;;;4896252;29;20538;-81
2023/01/02 13:02:55;;;;;;;10.90;2.70;;;15.80;99.90;;;;;;4902828;29;20071;-80
2023/01/02 13:05:32;;;;;;;15.88;2.97;;;15.80;99.90;;;;;;4897155;29;20583;-79
2023/01/02 13:08:06;;;;;;;10.90;2.50;;;15.80;99.90;;;;;;4899673;29;20052;-80
2023/01/02 13:10:32;;;;;;;13.38;2.42;;;15.70;99.90;;;;;;4902290;29;20065;-80
2023/01/02 13:13:00;;;;;;;11.35;2.38;;;15.70;99.90;;;;;;4892807;29;20052;-79
2023/01/02 13:15:32;;;;;;;14.40;2.05;;;15.70;99.90;;;;;;4892547;29;20656;-80
2023/01/02 13:18:23;;;;;;;9.20;2.22;;;15.70;99.90;;;;;;4895550;29;20151;-81
2023/01/02 13:21:04;;;;;;;13.30;2.92;;;15.70;99.90;;;;;;4883963;29;20091;-82
2023/01/02 13:23:32;;;;;;;;;;;15.70;99.90;;;;;;4894860;29;20056;-81
2023/01/02 13:26:12;;;;;;;17.35;3.20;;;15.60;99.90;;;;;;4901143;29;19962;-82
2023/01/02 13:29:08;;;;;;;17.50;3.70;;;15.60;99.90;;;;;;4889685;29;20426;-84
2023/01/02 13:31:38;;;;;;;10.57;3.35;;;15.60;99.90;;;;;;4882531;29;20069;-81
2023/01/02 13:34:20;;;;;;;11.80;3.17;;;15.50;99.90;;;;;;4896075;29;20169;-80
2023/01/02 13:36:50;;;;;;;9.50;3.40;;;15.40;99.90;;;;;;4890557;29;20082;-81
2023/01/02 13:39:16;;;;;;;14.00;4.07;;;15.40;99.90;;;;;;4882810;29;20045;-80
2023/01/02 13:44:46;;;;;;;9.20;2.38;;;15.30;99.90;;;;;;4891659;29;20044;-82
2023/01/02 13:47:14;;;;;;;12.45;2.67;;;15.20;99.90;;;;;;4892980;29;20057;-79
2023/01/02 13:49:57;;;;;;;;;;;15.10;99.90;;;;;;4886820;29;20061;-80
2023/01/02 13:52:24;;;;;;;9.00;2.90;;;15.00;99.90;;;;;;4886068;29;19935;-79
2023/01/02 13:55:20;;;;;;;14.30;3.85;;;15.00;99.90;;;;;;4883376;29;20053;-81
2023/01/02 13:58:14;;;;;;;19.38;4.40;;;14.90;99.90;;;;;;4883158;29;20461;-82
2023/01/02 14:00:44;;;;;;;7.85;3.78;;;14.90;99.90;;;;;;4898358;29;20049;-80
2023/01/02 14:03:22;;;;;;;9.13;3.22;;;14.90;99.90;;;;;;4899703;29;20403;-81
2023/01/02 14:05:57;;;;;;;;;;;14.80;99.90;;;;;;4897277;29;20068;-80
2023/01/02 14:08:38;;;;;;;8.88;3.28;;;14.80;99.90;;;;;;4892956;29;19928;-83
2023/01/02 14:11:16;;;;;;;8.30;3.03;;;14.70;99.90;;;;;;4887026;29;20430;-80
2023/01/02 14:13:45;;;;;;;9.77;4.45;;;14.70;99.90;;;;;;4893584;29;20509;-80
2023/01/02 14:16:11;;;;;;;8.98;2.75;;;14.60;99.90;;;;;;4893338;29;20140;-80
2023/01/02 14:18:39;;;;;;;10.45;2.80;;;14.60;99.90;;;;;;4892138;29;20459;-81
2023/01/02 14:21:19;;;;;;;5.68;2.60;;;14.60;99.90;;;;;;4890307;29;20053;-78
2023/01/02 14:23:48;;;;;;;8.02;2.47;;;14.60;99.90;;;;;;4891291;29;20097;-80
2023/01/02 14:26:37;;;;;;;11.40;2.35;;;14.50;99.90;;;;;;4889494;29;20468;-83
2023/01/02 14:29:11;;;;;;;11.05;2.50;;;14.50;99.90;;;;;;4885300;29;20104;-81
2023/01/02 14:31:38;;;;;;;5.78;1.98;;;14.50;99.90;;;;;;4885051;29;20188;-80
2023/01/02 14:34:05;;;;;;;11.48;2.67;;;14.40;99.90;;;;;;4883906;29;20049;-79
2023/01/02 14:36:52;;;;;;;7.85;2.60;;;14.40;99.90;;;;;;4892281;29;20076;-79
2023/01/02 14:39:29;;;;;;;10.82;2.88;;;14.40;99.90;;;;;;4902000;29;20049;-78
2023/01/02 14:45:10;;;;;;;11.40;2.88;;;14.30;99.90;;;;;;4893014;29;20088;-79
2023/01/02 14:47:39;;;;;;;8.48;3.13;;;14.20;99.90;;;;;;4887613;29;20049;-77
2023/01/02 14:50:14;;;;;;;9.27;2.75;;;14.20;99.90;;;;;;4888691;29;20479;-79
2023/01/02 14:52:46;;;;;;;7.35;1.83;;;14.20;99.90;;;;;;4887807;29;20045;-79
2023/01/02 14:55:21;;;;;;;14.25;2.08;;;14.10;99.90;;;;;;4891443;29;20053;-79
2023/01/02 14:57:51;;;;;;;7.82;2.28;;;14.10;99.90;;;;;;4889731;29;20072;-81
2023/01/02 15:00:26;;;;;;;8.17;2.50;;;14.00;99.90;;;;;;4887078;29;20100;-81
2023/01/02 15:03:06;;;;;;;8.05;2.13;;;14.00;99.90;;;;;;4888452;29;20293;-81
2023/01/02 15:05:44;;;;;;;6.30;1.90;;;14.00;99.90;;;;;;4899606;29;20060;-81
2023/01/02 15:08:13;;;;;;;6.65;1.90;;;13.90;99.90;;;;;;4884293;29;20136;-80
2023/01/02 15:13:02;;;;;;;8.90;1.92;;;14.00;99.90;;;;;;4895096;29;20498;-78
2023/01/02 15:13:53;;;;;;;8.95;1.65;;;13.90;99.90;;;;;;4896224;29;20063;-81
2023/01/02 15:16:39;;;;;;;8.82;2.90;;;13.80;99.90;;;;;;4898734;29;20085;-81
2023/01/02 15:19:15;;;;;;;14.82;7.00;;;13.90;99.90;;;;;;4883303;29;20411;-80
2023/01/02 15:21:42;;;;;;;8.68;2.67;;;13.80;99.90;;;;;;4892967;29;20488;-82
2023/01/02 15:24:24;;;;;;;11.00;2.45;;;13.70;99.90;;;;;;4888926;29;20048;-79
2023/01/02 15:26:52;;;;;;;3.75;1.60;;;13.70;99.90;;;;;;4892477;29;20053;-80
2023/01/02 15:29:27;;;;;;;7.00;3.17;;;13.70;99.90;;;;;;4892407;29;20060;-78
2023/01/02 15:31:57;;;;;;;5.25;2.17;;;13.60;99.90;;;;;;4890517;29;20062;-82
2023/01/02 15:34:29;;;;;;;8.15;1.98;;;13.60;99.90;;;;;;4880258;29;20085;-82
2023/01/02 15:37:04;;;;;;;5.18;1.88;;;13.60;99.90;;;;;;4880991;29;20136;-79
2023/01/02 15:39:36;;;;;;;7.20;2.08;;;13.60;99.90;;;;;;4889782;29;20565;-82
2023/01/02 15:45:08;;;;;;;5.00;2.05;;;13.50;99.90;;;;;;4890116;29;20140;-82
2023/01/02 15:45:10;;;;;;;9.70;2.25;;;13.50;99.90;;;;;;4896173;29;20092;-82
2023/01/02 15:47:44;;;;;;;4.68;1.95;;;13.50;99.90;;;;;;4896855;29;20518;-81
2023/01/02 15:50:22;;;;;;;4.18;2.20;;;13.50;99.90;;;;;;4881282;29;20061;-80
2023/01/02 15:53:17;;;;;;;8.98;2.67;;;13.40;99.90;;;;;;4895653;29;20139;-80
2023/01/02 15:55:44;;;;;;;7.80;2.38;;;13.40;99.90;;;;;;4887497;29;20514;-80
2023/01/02 15:58:23;;;;;;;6.03;1.98;;;13.40;99.90;;;;;;4900536;29;20059;-81
2023/01/02 16:01:21;;;;;;;6.03;2.20;;;13.40;99.90;;;;;;4884984;29;20064;-80
2023/01/02 16:03:54;;;;;;;8.93;3.47;;;13.40;99.90;;;;;;4886650;29;20095;-79
2023/01/02 16:06:40;;;;;;;3.70;1.80;;;13.40;99.90;;;;;;4879941;29;20049;-83
2023/01/02 16:09:32;;;;;;;8.82;2.05;;;13.40;99.90;;;;;;4880075;29;20053;-79
2023/01/02 16:12:01;;;;;;;5.35;1.85;;;13.40;99.90;;;;;;4889729;29;20153;-81
2023/01/02 16:14:44;;;;;;;4.80;2.45;;;13.40;99.90;;;;;;4903816;29;20076;-80
2023/01/02 16:17:32;;;;;;;4.65;1.83;;;13.40;99.90;;;;;;4889756;29;20057;-80
2023/01/02 16:20:06;;;;;;;3.40;1.95;;;13.40;99.90;;;;;;4894352;29;20048;-78
2023/01/02 16:22:47;;;;;;;6.30;2.08;;;13.40;99.90;;;;;;4883305;29;20491;-81
2023/01/02 16:25:18;;;;;;;7.68;2.28;;;13.40;99.90;;;;;;4882094;29;20067;-83
2023/01/02 16:28:00;;;;;;;2.85;1.65;;;13.40;99.90;;;;;;4881060;29;20140;-80
2023/01/02 16:30:36;;;;;;;3.78;1.67;;;13.40;99.90;;;;;;4895852;29;20052;-80
2023/01/02 16:33:22;;;;;;;5.15;1.63;;;13.40;99.90;;;;;;4893663;29;20453;-80
2023/01/02 16:36:06;;;;;;;6.15;2.22;;;13.40;99.90;;;;;;4906387;29;20049;-83
2023/01/02 16:38:52;;;;;;;4.35;1.92;;;13.40;99.90;;;;;;4894299;29;20072;-83
2023/01/02 16:42:32;;;;;;;4.88;2.35;;;13.40;99.90;;;;;;4886082;29;20095;-81
2023/01/02 16:44:41;;;;;;;6.57;2.40;;;13.40;99.90;;;;;;4887852;29;20049;-80
2023/01/02 16:47:09;;;;;;;7.50;2.10;;;13.40;99.90;;;;;;4889607;29;20049;-80
2023/01/02 16:49:36;;;;;;;4.32;1.75;;;13.40;99.90;;;;;;4905355;29;20513;-81
2023/01/02 16:52:03;;;;;;;6.30;2.30;;;13.40;99.90;;;;;;4893250;29;20862;-81
2023/01/02 16:54:30;;;;;;;4.05;1.98;;;13.40;99.90;;;;;;4890310;29;20072;-81
2023/01/02 16:56:56;;;;;;;6.07;2.42;;;13.40;99.90;;;;;;4890065;29;20064;-80
2023/01/02 16:59:23;;;;;;;5.05;2.20;;;13.40;99.90;;;;;;4891479;29;20100;-83
2023/01/02 17:01:51;;;;;;;3.60;1.98;;;13.40;99.90;;;;;;4889131;29;20277;-79
2023/01/02 17:04:17;;;;;;;7.05;2.70;;;13.40;99.90;;;;;;4882114;29;20106;-81
2023/01/02 17:06:44;;;;;;;7.97;2.42;;;13.50;99.90;;;;;;4893380;29;20056;-83
2023/01/02 17:09:11;;;;;;;6.82;2.42;;;13.50;99.90;;;;;;4896705;29;20113;-82
2023/01/02 17:11:58;;;;;;;10.82;2.53;;;13.40;99.90;;;;;;4887024;29;20052;-81
2023/01/02 17:14:29;;;;;;;6.80;2.33;;;13.40;99.90;;;;;;4890717;29;20524;-81
2023/01/02 17:16:56;;;;;;;5.30;2.25;;;13.40;99.90;;;;;;4850814;29;20075;-80
2023/01/02 17:19:23;;;;;;;5.82;2.50;;;13.30;99.90;;;;;;4908305;29;20423;-83
2023/01/02 17:21:50;;;;;;;4.38;2.42;;;13.30;99.90;;;;;;4894322;29;20491;-80
2023/01/02 17:24:17;;;;;;;4.00;2.13;;;13.30;99.90;;;;;;4899479;29;20072;-81
2023/01/02 17:26:45;;;;;;;6.82;2.83;;;13.20;99.90;;;;;;4902614;29;20123;-82
2023/01/02 17:29:12;;;;;;;6.80;2.70;;;13.30;99.90;;;;;;4900981;29;20047;-80
2023/01/02 17:31:39;;;;;;;8.45;2.97;;;13.30;99.90;;;;;;4898013;29;20055;-81
2023/01/02 17:34:06;;;;;;;9.73;3.75;;;13.30;99.90;;;;;;4898418;29;20052;-84
2023/01/02 17:36:33;;;;;;;8.07;2.78;;;13.30;99.90;;;;;;4892802;29;20056;-82
2023/01/02 17:38:59;;;;;;;7.03;2.55;;;13.20;99.90;;;;;;4895083;29;20086;-81
2023/01/02 17:41:26;;;;;;;12.10;3.40;;;13.30;99.90;;;;;;4894800;29;20133;-82
2023/01/02 17:43:55;;;;;;;9.02;3.13;;;13.20;99.90;;;;;;4890252;29;20074;-81
2023/01/02 17:46:29;;;;;;;6.72;2.75;;;13.20;99.90;;;;;;4892129;29;20184;-82
2023/01/02 17:49:16;;;;;;;8.18;3.28;;;13.20;99.90;;;;;;4893196;29;20059;-81
2023/01/02 17:51:43;;;;;;;6.05;3.20;;;13.20;99.90;;;;;;4891128;29;20105;-82
2023/01/02 17:54:11;;;;;;;11.23;3.05;;;13.20;99.90;;;;;;4894359;29;20422;-81
2023/01/02 17:56:38;;;;;;;8.65;2.88;;;13.20;99.90;;;;;;4891072;29;20621;-82
2023/01/02 17:59:05;;;;;;;9.38;3.05;;;13.10;99.90;;;;;;4898779;29;20104;-81
2023/01/02 18:01:32;;;;;;;6.45;3.00;;;13.10;99.90;;;;;;4895324;29;20052;-84
2023/01/02 18:03:58;;;;;;;6.72;3.20;;;13.10;99.90;;;;;;4897213;29;20117;-84
2023/01/02 18:06:25;;;;;;;6.10;2.67;;;13.10;99.90;;;;;;4899351;29;20048;-81
2023/01/02 18:08:54;;;;;;;7.30;2.67;;;13.00;99.90;;;;;;4894286;29;20073;-83
2023/01/02 18:11:21;;;;;;;6.43;2.55;;;13.00;99.90;;;;;;4895531;29;20075;-84
2023/01/02 18:13:52;;;;;;;6.35;2.45;;;13.00;99.90;;;;;;4895141;29;20048;-81
2023/01/02 18:16:21;;;;;;;7.47;2.90;;;13.00;99.90;;;;;;4894290;29;20048;-84
2023/01/02 18:18:49;;;;;;;10.88;4.07;;;12.90;99.90;;;;;;4892761;29;20100;-83
2023/01/02 18:21:20;;;;;;;10.85;3.60;;;12.90;99.90;;;;;;4887946;29;20105;-83
2023/01/02 18:23:54;;;;;;;11.13;3.50;;;12.90;99.90;;;;;;4899603;29;20057;-83
2023/01/02 18:26:21;;;;;;;7.03;3.10;;;12.90;99.90;;;;;;4895856;29;20055;-83
2023/01/02 18:28:57;;;;;;;5.95;2.78;;;12.90;99.90;;;;;;4889941;29;20053;-81
2023/01/02 18:31:45;;;;;;;5.75;2.50;;;12.70;99.90;;;;;;4895749;29;20057;-81
2023/01/02 18:34:17;;;;;;;11.18;2.80;;;12.70;99.90;;;;;;4897200;29;20075;-82
2023/01/02 18:37:19;;;;;;;8.68;2.85;;;12.70;99.90;;;;;;4895249;29;20499;-79
2023/01/02 18:39:47;;;;;;;5.20;2.47;;;12.70;99.90;;;;;;4896185;29;20437;-82
2023/01/02 18:42:19;;;;;;;8.38;2.70;;;12.60;99.90;;;;;;4893287;29;20052;-81
2023/01/02 18:44:47;;;;;;;5.80;2.72;;;12.60;99.90;;;;;;4891285;29;20056;-84
2023/01/02 18:47:29;;;;;;;4.45;2.30;;;12.50;99.90;;;;;;4907267;29;20057;-82
2023/01/02 18:50:00;;;;;;;4.60;2.10;;;12.40;99.90;;;;;;4893575;29;20143;-83
2023/01/02 18:52:30;;;;;;;6.10;3.17;;;12.50;99.90;;;;;;4891235;29;20052;-83
2023/01/02 18:55:22;;;;;;;3.13;1.70;;;12.50;99.90;;;;;;4896330;29;20135;-82
2023/01/02 18:58:00;;;;;;;4.70;2.17;;;12.50;99.90;;;;;;4891041;29;20049;-81
2023/01/02 19:00:30;;;;;;;5.75;2.38;;;12.50;99.90;;;;;;4872177;29;20056;-81
2023/01/02 19:03:02;;;;;;;4.75;2.38;;;12.50;99.90;;;;;;4893377;29;20091;-79
2023/01/02 19:05:42;;;;;;;3.63;2.22;;;12.60;99.90;;;;;;4891583;29;20491;-81
2023/01/02 19:08:35;;;;;;;3.03;1.90;;;12.50;99.90;;;;;;4893256;29;20083;-82
2023/01/02 19:14:22;;;;;;;5.72;2.33;;;12.50;99.90;;;;;;4895467;29;20132;-82
2023/01/02 19:17:20;;;;;;;6.82;1.98;;;12.40;99.90;;;;;;4893314;29;20044;-82
2023/01/02 19:19:47;;;;;;;3.97;2.00;;;12.40;99.90;;;;;;4888876;29;20049;-82
2023/01/02 19:22:20;;;;;;;4.95;1.88;;;12.40;99.90;;;;;;4894199;29;20124;-83
2023/01/02 19:24:48;;;;;;;4.57;2.10;;;12.40;99.90;;;;;;4893060;29;20045;-80
2023/01/02 19:27:28;;;;;;;4.38;1.95;;;12.40;99.90;;;;;;4891247;29;20060;-80
2023/01/02 19:29:55;;;;;;;;;;;12.50;99.90;;;;;;4893589;29;20052;-81
2023/01/02 19:32:32;;;;;;;4.15;3.08;;;12.40;99.90;;;;;;4895393;29;19927;-82
2023/01/02 19:35:06;;;;;;;3.92;1.63;;;12.40;99.90;;;;;;4888630;29;20115;-83
2023/01/02 19:37:37;;;;;;;4.28;1.75;;;12.40;99.90;;;;;;4889108;29;20056;-80
2023/01/02 19:40:19;;;;;;;6.35;2.05;;;12.30;99.90;;;;;;4892484;29;20045;-82
2023/01/02 19:42:47;;;;;;;4.25;1.70;;;12.30;99.90;;;;;;4891641;29;20049;-79
2023/01/02 19:45:16;;;;;;;6.07;2.05;;;12.30;99.90;;;;;;4895354;29;20047;-82
2023/01/02 19:47:44;;;;;;;5.73;1.97;;;12.40;99.90;;;;;;4892191;29;20099;-79
2023/01/02 19:50:17;;;;;;;3.05;1.60;;;12.40;99.90;;;;;;4895974;29;20515;-83
2023/01/02 19:52:44;;;;;;;5.25;2.15;;;12.40;99.90;;;;;;4892218;29;20080;-84
2023/01/02 19:55:11;;;;;;;4.05;2.05;;;12.40;99.90;;;;;;4894680;29;20072;-81
2023/01/02 19:57:38;;;;;;;5.03;2.10;;;12.40;99.90;;;;;;4897100;29;20069;-83
2023/01/02 20:00:08;;;;;;;3.03;2.13;;;12.30;99.90;;;;;;4895089;29;20422;-82
2023/01/02 20:02:35;;;;;;;8.52;2.28;;;12.30;99.90;;;;;;4893720;29;20056;-82
2023/01/02 20:05:02;;;;;;;4.55;2.13;;;12.30;99.90;;;;;;4889839;29;20053;-80
2023/01/02 20:07:29;;;;;;;4.95;1.80;;;12.20;99.90;;;;;;4890719;29;20049;-82
2023/01/02 20:09:56;;;;;;;3.47;1.30;;;12.20;99.90;;;;;;4885668;29;20060;-82
2023/01/02 20:12:29;;;;;;;3.92;1.50;;;12.20;99.90;;;;;;4896366;29;20045;-81
2023/01/02 20:14:57;;;;;;;4.70;1.45;;;12.20;99.90;;;;;;4892472;29;21209;-82
2023/01/02 20:17:23;;;;;;;4.65;1.48;;;12.10;99.90;;;;;;4891928;29;20072;-81
2023/01/02 20:19:50;;;;;;;2.00;1.27;;;12.10;99.90;;;;;;4892379;29;20045;-82
2023/01/02 20:22:17;;;;;;;1.80;1.13;;;12.00;99.90;;;;;;4889460;29;20064;-78
2023/01/02 20:24:44;;;;;;;3.30;1.27;;;11.90;99.90;;;;;;4906165;29;20053;-82
2023/01/02 20:27:12;;;;;;;2.67;1.10;;;11.90;99.90;;;;;;4893154;29;20061;-82
2023/01/02 20:29:39;;;;;;;5.00;1.30;;;11.90;99.90;;;;;;4895931;29;20096;-82
2023/01/02 20:32:06;;;;;;;1.85;1.00;;;11.90;99.90;;;;;;4896390;29;20057;-82
2023/01/02 20:34:33;;;;;;;1.48;1.05;;;11.90;99.90;;;;;;4895275;29;20059;-82
2023/01/02 20:36:59;;;;;;;2.20;1.10;;;11.90;99.90;;;;;;4894424;29;20048;-82
2023/01/02 20:39:26;;;;;;;1.00;0.90;;;11.80;99.90;;;;;;4901201;29;20048;-84
2023/01/02 20:41:53;;;;;;;1.42;0.70;;;11.80;99.90;;;;;;4892513;29;20048;-84
2023/01/02 20:44:19;;;;;;;1.13;1.00;;;11.90;99.90;;;;;;4887519;29;20052;-82
2023/01/02 20:46:46;;;;;;;2.05;1.10;;;11.80;99.90;;;;;;4884090;29;20049;-80
2023/01/02 20:49:13;;;;;;;3.10;1.02;;;11.80;99.90;;;;;;4890333;29;20128;-81
2023/01/02 20:51:41;;;;;;;5.20;1.17;;;11.80;99.90;;;;;;4892973;29;20048;-82
2023/01/02 20:54:08;;;;;;;1.73;0.85;;;11.80;99.90;;;;;;4895094;29;20430;-83
2023/01/02 20:56:34;;;;;;;1.67;0.95;;;11.80;99.90;;;;;;4893533;29;20046;-82
2023/01/02 20:59:02;;;;;;;2.50;1.00;;;11.80;99.90;;;;;;4895768;29;20056;-82
2023/01/02 21:01:29;;;;;;;1.38;0.77;;;11.80;99.90;;;;;;4892169;29;20134;-82
2023/01/02 21:03:56;;;;;;;1.00;0.90;;;11.80;99.90;;;;;;4895963;29;20048;-81
2023/01/02 21:06:23;;;;;;;3.97;1.40;;;11.80;99.90;;;;;;4918368;29;20048;-84
2023/01/02 21:08:50;;;;;;;4.53;0.93;;;11.70;99.90;;;;;;4912318;29;20059;-83
2023/01/02 21:11:17;;;;;;;2.35;0.80;;;11.70;99.90;;;;;;4921083;29;20044;-82
2023/01/02 21:13:44;;;;;;;0.82;0.60;;;11.70;99.90;;;;;;4917347;29;20056;-84
2023/01/02 21:16:10;;;;;;;1.25;0.80;;;11.60;99.90;;;;;;4925285;29;20573;-83
2023/01/02 21:18:39;;;;;;;2.25;1.63;;;11.60;99.90;;;;;;4923259;29;20048;-84
2023/01/02 21:21:12;;;;;;;2.35;1.00;;;11.60;99.90;;;;;;4919524;29;20076;-82
2023/01/02 21:23:40;;;;;;;1.13;0.80;;;11.60;99.90;;;;;;4922399;29;20060;-82
2023/01/02 21:26:08;;;;;;;2.17;1.00;;;11.60;99.90;;;;;;4925141;29;20458;-83
2023/01/02 21:28:36;;;;;;;2.65;1.08;;;11.60;99.90;;;;;;4922132;29;20523;-83
2023/01/02 21:31:03;;;;;;;2.00;1.08;;;11.50;99.90;;;;;;4924285;29;20057;-81
2023/01/02 21:33:30;;;;;;;2.50;1.20;;;11.50;99.90;;;;;;4929189;29;20422;-83
2023/01/02 21:35:59;;;;;;;1.23;0.90;;;11.50;99.90;;;;;;4922138;29;20107;-83
2023/01/02 21:38:27;;;;;;;2.25;1.33;;;11.60;99.90;;;;;;4921682;29;21913;-85
2023/01/02 21:42:14;;;;;;;3.55;1.30;;;11.50;99.90;;;;;;4923617;29;20068;-83
2023/01/02 21:43:42;;;;;;;2.55;1.17;;;11.50;99.90;;;;;;4922367;29;20655;-84